Time;durP1;ratioP1;P1;durP2;ratioP2;P2;SDS_P1;SDS_P2;PMS_P1;PMS_P2;Temp;Humidity;BMP_temperature;BMP_pressure;BME280_temperature;BME280_humidity;BME280_pressure;Samples;Min_cycle;Max_cycle;Signal;HPM_P1;HPM_P2
2024/02/12 00:02:08;;;;;;;2.30;0.88;;;;;;;;;;7414239;19;19978;-81
2024/02/12 00:04:54;;;;;;;1.00;0.65;;;;;;;;;;7415264;19;20023;-81
2024/02/12 00:07:47;;;;;;;1.48;1.02;;;;;;;;;;7414662;19;20006;-81
2024/02/12 00:10:34;;;;;;;0.52;0.40;;;;;;;;;;7414087;19;19933;-81
2024/02/12 00:13:20;;;;;;;1.05;0.65;;;;;;;;;;7412652;19;20487;-81
2024/02/12 00:35:50;;;;;;;1.27;0.68;;;;;;;;;;7400312;19;19919;-81
2024/02/12 00:38:34;;;;;;;2.95;0.80;;;;;;;;;;7412752;19;19939;-81
2024/02/12 00:41:22;;;;;;;2.47;0.98;;;;;;;;;;7412733;19;19922;-81
2024/02/12 00:44:09;;;;;;;4.75;1.17;;;;;;;;;;7415251;19;19919;-81
2024/02/12 00:46:56;;;;;;;1.75;0.90;;;;;;;;;;7411284;19;19914;-80
2024/02/12 00:49:43;;;;;;;1.80;0.80;;;;;;;;;;7410895;19;19943;-80
2024/02/12 00:52:33;;;;;;;1.95;1.02;;;;;;;;;;7415674;19;19915;-80
2024/02/12 00:55:18;;;;;;;1.08;0.60;;;;;;;;;;7412698;19;19922;-80
2024/02/12 00:58:11;;;;;;;3.28;0.75;;;;;;;;;;7412768;19;20610;-80
2024/02/12 01:00:55;;;;;;;1.52;0.77;;;;;;;;;;7412686;19;19917;-80
2024/02/12 01:03:56;;;;;;;1.77;1.00;;;;;;;;;;7413003;19;19922;-80
2024/02/12 01:06:43;;;;;;;2.58;1.00;;;;;;;;;;7410895;19;19990;-80
2024/02/12 01:09:30;;;;;;;3.83;0.93;;;;;;;;;;7410836;19;20330;-80
2024/02/12 01:12:15;;;;;;;2.42;0.85;;;;;;;;;;7412700;19;19933;-80
2024/02/12 01:14:59;;;;;;;2.45;1.10;;;;;;;;;;7407559;19;19922;-80
2024/02/12 01:32:32;;;;;;;1.40;0.70;;;;;;;;;;7381245;19;19927;-79
2024/02/12 01:35:16;;;;;;;1.75;0.80;;;;;;;;;;7407477;19;19970;-81
2024/02/12 01:38:00;;;;;;;4.45;0.77;;;;;;;;;;7409250;19;19921;-81
2024/02/12 01:40:44;;;;;;;4.05;0.90;;;;;;;;;;7411272;19;20273;-81
2024/02/12 01:43:36;;;;;;;3.33;0.60;;;;;;;;;;7411591;19;19923;-82
2024/02/12 01:46:21;;;;;;;2.28;0.80;;;;;;;;;;7410045;19;19937;-82
2024/02/12 01:49:10;;;;;;;3.28;0.95;;;;;;;;;;7411114;19;19918;-82
2024/02/12 01:51:57;;;;;;;1.35;0.70;;;;;;;;;;7412159;19;19927;-82
2024/02/12 01:54:44;;;;;;;1.73;0.65;;;;;;;;;;7409647;19;19914;-82
2024/02/12 01:57:33;;;;;;;1.60;0.80;;;;;;;;;;7409284;19;19915;-82
2024/02/12 02:00:26;;;;;;;1.42;0.68;;;;;;;;;;7411134;19;19919;-82
2024/02/12 02:03:21;;;;;;;1.73;1.17;;;;;;;;;;7410419;19;19915;-82
2024/02/12 02:06:12;;;;;;;1.30;0.80;;;;;;;;;;7410816;19;19914;-82
2024/02/12 02:08:59;;;;;;;0.80;0.60;;;;;;;;;;7411076;19;19918;-81
2024/02/12 02:11:47;;;;;;;2.28;0.95;;;;;;;;;;7408447;19;19922;-82
2024/02/12 02:14:31;;;;;;;3.40;0.90;;;;;;;;;;7409708;19;19921;-82
2024/02/12 02:17:22;;;;;;;2.47;0.55;;;;;;;;;;7411765;19;19922;-82
2024/02/12 02:20:12;;;;;;;1.23;0.50;;;;;;;;;;7409127;19;19919;-82
2024/02/12 02:23:01;;;;;;;0.73;0.60;;;;;;;;;;7412239;19;19923;-82
2024/02/12 02:25:49;;;;;;;0.82;0.60;;;;;;;;;;7411807;19;19921;-82
2024/02/12 02:28:33;;;;;;;2.65;0.70;;;;;;;;;;7428751;19;19911;-82
2024/02/12 02:31:17;;;;;;;1.20;0.73;;;;;;;;;;7436889;19;19915;-81
2024/02/12 02:34:02;;;;;;;1.08;0.70;;;;;;;;;;7412130;19;19925;-81
2024/02/12 02:36:48;;;;;;;2.38;1.25;;;;;;;;;;7410328;19;19919;-81
2024/02/12 02:39:33;;;;;;;2.45;0.80;;;;;;;;;;7413991;19;19918;-81
2024/02/12 02:42:20;;;;;;;2.90;1.00;;;;;;;;;;7408937;19;19937;-82
2024/02/12 02:45:04;;;;;;;2.45;0.80;;;;;;;;;;7410773;19;20323;-82
2024/02/12 02:47:56;;;;;;;5.13;1.77;;;;;;;;;;7412942;19;19918;-82
2024/02/12 02:50:45;;;;;;;2.08;1.25;;;;;;;;;;7412163;19;20288;-82
2024/02/12 02:53:29;;;;;;;1.45;1.10;;;;;;;;;;7419966;19;19918;-82
2024/02/12 02:56:19;;;;;;;1.88;1.00;;;;;;;;;;7431477;19;19929;-82
2024/02/12 02:59:12;;;;;;;2.40;0.82;;;;;;;;;;7434925;19;19966;-82
2024/02/12 03:01:58;;;;;;;1.55;0.85;;;;;;;;;;7429034;19;20384;-82
2024/02/12 03:04:43;;;;;;;2.92;1.02;;;;;;;;;;7405598;19;20375;-81
2024/02/12 03:07:29;;;;;;;2.08;1.00;;;;;;;;;;7406138;19;19914;-80
2024/02/12 03:10:17;;;;;;;2.60;1.30;;;;;;;;;;7407181;19;19922;-80
2024/02/12 03:13:05;;;;;;;1.95;1.00;;;;;;;;;;7404702;19;20278;-80
2024/02/12 03:15:54;;;;;;;2.33;1.10;;;;;;;;;;7403060;19;19997;-80
2024/02/12 03:18:45;;;;;;;1.92;0.77;;;;;;;;;;7406685;19;19936;-80
2024/02/12 03:21:32;;;;;;;2.25;1.08;;;;;;;;;;7408960;19;19919;-80
2024/02/12 03:24:19;;;;;;;4.13;1.05;;;;;;;;;;7405072;19;19915;-80
2024/02/12 03:27:04;;;;;;;4.10;1.10;;;;;;;;;;7404626;19;19947;-80
2024/02/12 03:29:51;;;;;;;1.25;0.90;;;;;;;;;;7407123;19;20317;-80
2024/02/12 03:32:42;;;;;;;1.65;0.98;;;;;;;;;;7408132;19;19922;-80
2024/02/12 03:35:32;;;;;;;2.83;1.35;;;;;;;;;;7405866;19;19910;-80
2024/02/12 03:38:24;;;;;;;1.40;1.10;;;;;;;;;;7407643;19;19934;-80
2024/02/12 03:41:24;;;;;;;2.20;1.20;;;;;;;;;;7407596;19;19914;-80
2024/02/12 03:44:09;;;;;;;2.22;1.20;;;;;;;;;;7421651;19;19982;-81
2024/02/12 03:46:55;;;;;;;2.25;1.20;;;;;;;;;;7426833;19;19926;-81
2024/02/12 04:01:48;;;;;;;2.63;1.27;;;;;;;;;;7427833;19;19918;-81
2024/02/12 04:04:35;;;;;;;6.93;1.13;;;;;;;;;;7418073;19;19929;-79
2024/02/12 04:07:24;;;;;;;2.50;1.30;;;;;;;;;;7407719;19;19907;-79
2024/02/12 04:10:10;;;;;;;2.40;1.33;;;;;;;;;;7411710;19;19925;-79
2024/02/12 04:12:57;;;;;;;1.60;1.20;;;;;;;;;;7413030;19;19966;-79
2024/02/12 04:15:48;;;;;;;3.58;1.60;;;;;;;;;;7413304;19;19926;-79
2024/02/12 04:18:35;;;;;;;2.38;1.13;;;;;;;;;;7414697;19;19976;-79
2024/02/12 04:21:24;;;;;;;2.78;1.10;;;;;;;;;;7415608;19;20367;-79
2024/02/12 04:24:11;;;;;;;1.70;1.15;;;;;;;;;;7418100;19;19918;-78
2024/02/12 04:26:58;;;;;;;5.65;1.17;;;;;;;;;;7411487;19;19925;-78
2024/02/12 04:29:44;;;;;;;5.68;1.73;;;;;;;;;;7416067;19;19922;-78
2024/02/12 04:32:33;;;;;;;3.05;1.58;;;;;;;;;;7413213;19;19903;-78
2024/02/12 04:35:20;;;;;;;2.58;1.15;;;;;;;;;;7415271;19;19982;-78
2024/02/12 04:38:06;;;;;;;2.03;1.10;;;;;;;;;;7409296;19;20841;-79
2024/02/12 04:40:55;;;;;;;6.13;1.55;;;;;;;;;;7415565;19;19974;-79
2024/02/12 04:43:42;;;;;;;3.10;1.40;;;;;;;;;;7415963;19;20680;-79
2024/02/12 04:46:27;;;;;;;2.42;1.35;;;;;;;;;;7420287;19;19915;-79
2024/02/12 04:49:11;;;;;;;4.28;1.50;;;;;;;;;;7419630;19;19918;-79
2024/02/12 04:51:56;;;;;;;5.15;1.70;;;;;;;;;;7423174;19;19917;-79
2024/02/12 04:54:43;;;;;;;3.13;1.73;;;;;;;;;;7420647;19;19919;-79
2024/02/12 04:57:32;;;;;;;2.08;1.45;;;;;;;;;;7417280;19;19965;-79
2024/02/12 05:00:19;;;;;;;5.57;1.67;;;;;;;;;;7420777;19;19947;-79
2024/02/12 05:03:16;;;;;;;4.38;1.83;;;;;;;;;;7420206;19;19919;-79
2024/02/12 05:06:00;;;;;;;3.75;1.50;;;;;;;;;;7418050;19;20083;-79
2024/02/12 05:08:45;;;;;;;6.10;1.35;;;;;;;;;;7420402;19;19922;-79
2024/02/12 05:11:30;;;;;;;5.47;1.80;;;;;;;;;;7422316;19;20239;-79
2024/02/12 05:14:26;;;;;;;2.75;1.55;;;;;;;;;;7423030;19;19915;-79
2024/02/12 05:17:11;;;;;;;1.95;1.20;;;;;;;;;;7418387;19;19941;-79
2024/02/12 05:22:56;;;;;;;2.45;1.70;;;;;;;;;;7421678;19;19944;-79
2024/02/12 05:25:43;;;;;;;4.82;1.58;;;;;;;;;;7423574;19;19937;-79
2024/02/12 05:28:27;;;;;;;7.72;1.52;;;;;;;;;;7430847;19;19925;-79
2024/02/12 05:31:17;;;;;;;3.40;1.17;;;;;;;;;;7436393;19;19914;-79
2024/02/12 05:34:03;;;;;;;2.60;1.60;;;;;;;;;;7438779;19;19918;-79
2024/02/12 05:36:47;;;;;;;5.20;1.83;;;;;;;;;;7420975;19;19922;-79
2024/02/12 05:39:33;;;;;;;3.67;1.60;;;;;;;;;;7422532;19;19921;-79
2024/02/12 05:42:18;;;;;;;3.90;1.60;;;;;;;;;;7423030;19;20294;-79
2024/02/12 05:45:02;;;;;;;4.25;1.73;;;;;;;;;;7421443;19;19922;-79
2024/02/12 05:47:52;;;;;;;5.70;1.40;;;;;;;;;;7420961;19;19911;-79
2024/02/12 05:50:37;;;;;;;2.90;1.38;;;;;;;;;;7423792;19;19918;-79
2024/02/12 05:53:21;;;;;;;4.30;2.00;;;;;;;;;;7419614;19;20419;-82
2024/02/12 05:56:06;;;;;;;3.92;2.08;;;;;;;;;;7419781;19;19939;-82
2024/02/12 05:58:51;;;;;;;4.68;1.83;;;;;;;;;;7421358;19;19919;-81
2024/02/12 06:01:37;;;;;;;5.20;2.15;;;;;;;;;;7423725;19;19918;-82
2024/02/12 06:04:24;;;;;;;3.95;1.92;;;;;;;;;;7420907;19;19915;-82
2024/02/12 06:07:09;;;;;;;5.30;1.92;;;;;;;;;;7420235;19;19925;-82
2024/02/12 06:09:53;;;;;;;4.88;1.58;;;;;;;;;;7420793;19;19914;-82
2024/02/12 06:12:37;;;;;;;3.42;1.77;;;;;;;;;;7422785;19;19914;-82
2024/02/12 06:15:24;;;;;;;2.83;1.40;;;;;;;;;;7420315;19;19922;-82
2024/02/12 06:18:10;;;;;;;3.30;2.00;;;;;;;;;;7418299;19;19907;-82
2024/02/12 06:20:57;;;;;;;3.40;1.83;;;;;;;;;;7422203;19;19914;-82
2024/02/12 06:23:45;;;;;;;4.88;1.92;;;;;;;;;;7422551;19;19934;-82
2024/02/12 06:26:33;;;;;;;4.95;2.25;;;;;;;;;;7422680;19;19950;-82
2024/02/12 06:29:20;;;;;;;4.10;1.98;;;;;;;;;;7421011;19;19922;-82
2024/02/12 06:32:14;;;;;;;4.82;1.65;;;;;;;;;;7422052;19;19974;-82
2024/02/12 06:35:01;;;;;;;4.05;2.25;;;;;;;;;;7420743;19;20341;-82
2024/02/12 06:37:53;;;;;;;5.10;1.90;;;;;;;;;;7419268;19;19927;-82
2024/02/12 06:40:37;;;;;;;2.72;1.90;;;;;;;;;;7423055;19;19925;-82
2024/02/12 06:43:23;;;;;;;4.07;2.35;;;;;;;;;;7423664;19;19923;-82
2024/02/12 06:46:10;;;;;;;3.15;1.98;;;;;;;;;;7423944;19;19911;-81
2024/02/12 06:48:56;;;;;;;4.05;1.80;;;;;;;;;;7422019;19;19919;-82
2024/02/12 06:51:43;;;;;;;4.13;1.90;;;;;;;;;;7421253;19;19935;-82
2024/02/12 06:54:32;;;;;;;4.32;2.05;;;;;;;;;;7420909;19;19910;-82
2024/02/12 06:57:16;;;;;;;4.85;2.45;;;;;;;;;;7420490;19;19922;-82
2024/02/12 07:00:00;;;;;;;2.90;2.05;;;;;;;;;;7419374;19;19914;-82
2024/02/12 07:02:49;;;;;;;5.53;1.73;;;;;;;;;;7419166;19;19926;-81
2024/02/12 07:05:34;;;;;;;4.35;2.20;;;;;;;;;;7414773;19;20383;-81
2024/02/12 07:08:18;;;;;;;8.48;2.17;;;;;;;;;;7412530;19;19925;-81
2024/02/12 07:11:08;;;;;;;4.03;2.00;;;;;;;;;;7419690;19;19933;-81
2024/02/12 07:13:52;;;;;;;6.60;2.33;;;;;;;;;;7421756;19;19919;-82
2024/02/12 07:16:41;;;;;;;4.38;2.03;;;;;;;;;;7419969;19;19919;-82
2024/02/12 07:19:26;;;;;;;4.40;2.17;;;;;;;;;;7419174;19;19926;-82
2024/02/12 07:22:10;;;;;;;4.72;2.08;;;;;;;;;;7422337;19;19918;-82
2024/02/12 07:24:56;;;;;;;3.10;1.92;;;;;;;;;;7419232;19;19915;-82
2024/02/12 07:27:50;;;;;;;3.70;2.22;;;;;;;;;;7420509;19;19929;-82
2024/02/12 07:30:39;;;;;;;5.10;2.13;;;;;;;;;;7423004;19;19933;-82
2024/02/12 07:33:28;;;;;;;4.40;2.17;;;;;;;;;;7434251;19;19915;-82
2024/02/12 07:36:14;;;;;;;4.28;2.08;;;;;;;;;;7430612;19;19918;-81
2024/02/12 07:39:00;;;;;;;4.35;2.58;;;;;;;;;;7428375;19;19926;-81
2024/02/12 07:41:47;;;;;;;4.97;2.67;;;;;;;;;;7431359;19;19914;-81
2024/02/12 07:44:39;;;;;;;5.57;2.50;;;;;;;;;;7431411;19;20001;-81
2024/02/12 07:47:25;;;;;;;5.97;2.22;;;;;;;;;;7426035;19;19966;-81
2024/02/12 07:50:10;;;;;;;6.20;2.38;;;;;;;;;;7421146;19;19918;-82
2024/02/12 07:52:56;;;;;;;4.90;2.70;;;;;;;;;;7415621;19;19922;-81
2024/02/12 07:55:42;;;;;;;4.40;2.20;;;;;;;;;;7411734;19;19923;-83
2024/02/12 07:58:29;;;;;;;5.05;2.47;;;;;;;;;;7409599;19;19925;-84
2024/02/12 08:01:16;;;;;;;5.00;2.58;;;;;;;;;;7415898;19;19922;-84
2024/02/12 08:04:00;;;;;;;5.57;2.80;;;;;;;;;;7414559;19;19915;-84
2024/02/12 08:06:47;;;;;;;4.28;2.35;;;;;;;;;;7412317;19;19943;-84
2024/02/12 08:09:33;;;;;;;5.72;2.75;;;;;;;;;;7413404;19;19927;-84
2024/02/12 08:12:19;;;;;;;5.57;2.65;;;;;;;;;;7415315;19;19974;-84
2024/02/12 08:15:08;;;;;;;3.22;2.17;;;;;;;;;;7413334;19;19930;-84
2024/02/12 08:18:15;;;;;;;4.60;2.35;;;;;;;;;;7414275;19;19918;-84
2024/02/12 08:21:05;;;;;;;6.93;2.83;;;;;;;;;;7419416;19;19918;-84
2024/02/12 08:23:51;;;;;;;5.28;2.55;;;;;;;;;;7421006;19;19918;-84
2024/02/12 08:26:40;;;;;;;5.43;2.65;;;;;;;;;;7419942;19;19919;-84
2024/02/12 08:29:26;;;;;;;5.28;2.55;;;;;;;;;;7419340;19;19913;-84
2024/02/12 08:32:16;;;;;;;5.43;3.03;;;;;;;;;;7420755;19;19927;-84
2024/02/12 08:35:05;;;;;;;6.05;2.78;;;;;;;;;;7418342;19;19911;-84
2024/02/12 08:37:54;;;;;;;4.55;2.90;;;;;;;;;;7417499;19;19926;-82
2024/02/12 08:40:41;;;;;;;6.10;2.15;;;;;;;;;;7418484;19;19943;-82
2024/02/12 08:43:28;;;;;;;5.40;2.70;;;;;;;;;;7418672;19;20375;-82
2024/02/12 08:46:18;;;;;;;4.30;2.55;;;;;;;;;;7413340;19;19922;-82
2024/02/12 08:49:02;;;;;;;6.75;3.17;;;;;;;;;;7415386;19;19919;-82
2024/02/12 08:51:51;;;;;;;6.20;2.95;;;;;;;;;;7414345;19;19932;-81
2024/02/12 08:54:37;;;;;;;7.75;3.30;;;;;;;;;;7414900;19;20341;-81
2024/02/12 08:57:24;;;;;;;7.35;3.55;;;;;;;;;;7415667;19;19919;-82
2024/02/12 09:00:18;;;;;;;6.18;3.08;;;;;;;;;;7418524;19;19926;-81
2024/02/12 09:03:13;;;;;;;6.25;3.03;;;;;;;;;;7423156;19;19925;-81
2024/02/12 09:05:58;;;;;;;10.35;3.28;;;;;;;;;;7423151;19;19997;-81
2024/02/12 09:08:46;;;;;;;5.88;3.13;;;;;;;;;;7423211;19;19922;-81
2024/02/12 09:11:32;;;;;;;6.50;3.47;;;;;;;;;;7422568;19;19929;-81
2024/02/12 09:14:20;;;;;;;7.97;2.97;;;;;;;;;;7419988;19;19914;-81
2024/02/12 09:17:07;;;;;;;6.68;3.63;;;;;;;;;;7420309;19;19922;-81
2024/02/12 09:19:56;;;;;;;6.45;3.10;;;;;;;;;;7420136;19;19926;-81
2024/02/12 09:22:41;;;;;;;8.15;3.30;;;;;;;;;;7421843;19;19922;-81
2024/02/12 09:25:33;;;;;;;5.90;3.00;;;;;;;;;;7419798;19;19919;-81
2024/02/12 09:28:17;;;;;;;6.18;3.03;;;;;;;;;;7418696;19;19919;-80
2024/02/12 09:31:06;;;;;;;6.95;2.97;;;;;;;;;;7424318;19;19918;-80
2024/02/12 09:33:55;;;;;;;6.18;3.28;;;;;;;;;;7426858;19;19918;-80
2024/02/12 09:36:46;;;;;;;5.53;3.33;;;;;;;;;;7432249;19;19939;-80
2024/02/12 09:39:35;;;;;;;8.65;3.15;;;;;;;;;;7433092;19;19947;-80
2024/02/12 09:42:26;;;;;;;;;;;;;;;;;;7432913;19;20344;-81
2024/02/12 09:45:13;;;;;;;10.07;3.60;;;;;;;;;;7420127;19;19923;-80
2024/02/12 09:47:59;;;;;;;6.72;2.88;;;;;;;;;;7423522;19;19929;-79
2024/02/12 09:50:47;;;;;;;12.52;2.78;;;;;;;;;;7425228;19;19907;-79
2024/02/12 09:53:34;;;;;;;5.93;3.13;;;;;;;;;;7422936;19;19914;-79
2024/02/12 09:56:22;;;;;;;6.82;2.58;;;;;;;;;;7421807;19;19947;-79
2024/02/12 09:59:12;;;;;;;11.18;3.47;;;;;;;;;;7420969;19;19914;-79
2024/02/12 10:01:58;;;;;;;;;;;;;;;;;;7425631;19;19922;-80
2024/02/12 10:05:02;;;;;;;7.82;3.08;;;;;;;;;;7419828;19;19915;-80
2024/02/12 10:08:20;;;;;;;9.15;2.72;;;;;;;;;;7419738;19;19926;-80
2024/02/12 10:11:29;;;;;;;10.13;3.05;;;;;;;;;;7421108;19;19925;-80
2024/02/12 10:14:36;;;;;;;7.70;3.13;;;;;;;;;;7422451;19;19921;-79
2024/02/12 10:17:45;;;;;;;5.75;2.58;;;;;;;;;;7420778;19;19935;-79
2024/02/12 10:20:49;;;;;;;5.35;2.30;;;;;;;;;;7421014;19;19939;-80
2024/02/12 10:23:56;;;;;;;6.13;2.92;;;;;;;;;;7422384;19;19948;-79
2024/02/12 10:27:01;;;;;;;5.07;2.67;;;;;;;;;;7419492;19;19978;-80
2024/02/12 10:30:11;;;;;;;5.95;2.55;;;;;;;;;;7420447;19;19922;-80
2024/02/12 10:33:17;;;;;;;8.23;2.75;;;;;;;;;;7417736;19;19931;-79
2024/02/12 10:36:22;;;;;;;7.95;3.15;;;;;;;;;;7420060;19;19931;-79
2024/02/12 10:39:33;;;;;;;5.97;2.38;;;;;;;;;;7417859;19;19927;-79
2024/02/12 10:42:40;;;;;;;6.25;2.50;;;;;;;;;;7421724;19;20340;-80
2024/02/12 10:45:50;;;;;;;4.90;2.58;;;;;;;;;;7419955;19;19914;-79
2024/02/12 10:48:55;;;;;;;3.38;2.25;;;;;;;;;;7423733;19;19919;-79
2024/02/12 10:52:01;;;;;;;5.15;3.30;;;;;;;;;;7422692;19;19925;-79
2024/02/12 10:55:09;;;;;;;10.77;5.20;;;;;;;;;;7422879;19;19927;-80
2024/02/12 10:57:53;;;;;;;9.50;4.80;;;;;;;;;;7418844;19;20257;-80
2024/02/12 11:00:40;;;;;;;8.02;3.80;;;;;;;;;;7421283;19;19927;-80
2024/02/12 11:03:37;;;;;;;5.65;3.28;;;;;;;;;;7421453;19;20297;-80
2024/02/12 11:06:29;;;;;;;5.72;2.58;;;;;;;;;;7424733;19;19918;-80
2024/02/12 11:09:19;;;;;;;8.38;3.63;;;;;;;;;;7421546;19;19914;-80
2024/02/12 11:12:22;;;;;;;5.05;2.85;;;;;;;;;;7421283;19;20534;-79
2024/02/12 11:15:10;;;;;;;4.38;2.60;;;;;;;;;;7418227;19;19910;-80
2024/02/12 11:17:59;;;;;;;6.32;2.85;;;;;;;;;;7420666;19;19925;-80
2024/02/12 11:20:53;;;;;;;6.50;2.88;;;;;;;;;;7418635;19;19918;-79
2024/02/12 11:23:46;;;;;;;5.22;2.40;;;;;;;;;;7422229;19;19922;-79
2024/02/12 11:26:36;;;;;;;6.88;2.92;;;;;;;;;;7420768;19;19926;-80
2024/02/12 11:29:24;;;;;;;6.60;2.88;;;;;;;;;;7419401;19;20301;-80
2024/02/12 11:32:10;;;;;;;6.55;3.50;;;;;;;;;;7418503;19;20283;-80
2024/02/12 11:34:54;;;;;;;5.00;2.85;;;;;;;;;;7420152;19;19911;-79
2024/02/12 11:37:47;;;;;;;5.90;2.95;;;;;;;;;;7413493;19;19962;-80
2024/02/12 11:40:34;;;;;;;6.18;2.72;;;;;;;;;;7415104;19;20000;-79
2024/02/12 11:43:24;;;;;;;4.90;3.17;;;;;;;;;;7418506;19;19922;-79
2024/02/12 11:46:10;;;;;;;6.55;2.15;;;;;;;;;;7415296;19;19934;-79
2024/02/12 11:49:06;;;;;;;3.67;2.15;;;;;;;;;;7416465;19;19919;-79
2024/02/12 11:51:51;;;;;;;5.63;2.03;;;;;;;;;;7413086;19;19923;-79
2024/02/12 11:54:39;;;;;;;2.28;1.42;;;;;;;;;;7414415;19;19919;-79
2024/02/12 11:57:27;;;;;;;4.03;1.05;;;;;;;;;;7414460;19;19917;-79
2024/02/12 12:00:19;;;;;;;;;;;;;;;;;;7413954;19;19919;-79
2024/02/12 12:03:04;;;;;;;1.40;0.63;;;;;;;;;;7416995;19;19919;-79
2024/02/12 12:05:52;;;;;;;2.50;1.00;;;;;;;;;;7415716;19;19907;-79
2024/02/12 12:08:41;;;;;;;3.03;1.48;;;;;;;;;;7410496;19;20348;-79
2024/02/12 12:11:28;;;;;;;4.60;1.73;;;;;;;;;;7415006;19;19994;-79
2024/02/12 12:14:13;;;;;;;2.50;1.40;;;;;;;;;;7418814;19;19927;-79
2024/02/12 12:16:58;;;;;;;5.47;1.55;;;;;;;;;;7417954;19;19914;-79
2024/02/12 12:19:44;;;;;;;3.42;2.00;;;;;;;;;;7414154;19;19914;-79
2024/02/12 12:22:31;;;;;;;2.72;1.65;;;;;;;;;;7420567;19;19958;-80
2024/02/12 12:25:18;;;;;;;7.05;2.38;;;;;;;;;;7423179;19;19919;-80
2024/02/12 12:28:06;;;;;;;4.18;1.77;;;;;;;;;;7418354;19;19921;-80
2024/02/12 12:30:54;;;;;;;4.88;1.90;;;;;;;;;;7416705;19;19914;-79
2024/02/12 12:33:39;;;;;;;3.58;1.90;;;;;;;;;;7418027;19;20328;-79
2024/02/12 12:36:23;;;;;;;2.85;1.73;;;;;;;;;;7418675;19;19923;-80
2024/02/12 12:39:15;;;;;;;4.72;2.30;;;;;;;;;;7414297;19;19922;-79
2024/02/12 12:42:00;;;;;;;3.30;1.75;;;;;;;;;;7415788;19;20293;-79
2024/02/12 12:44:51;;;;;;;3.38;2.22;;;;;;;;;;7413226;19;19918;-79
2024/02/12 12:47:36;;;;;;;8.00;3.85;;;;;;;;;;7415261;19;19907;-79
2024/02/12 12:50:24;;;;;;;3.33;1.88;;;;;;;;;;7423028;19;19932;-79
2024/02/12 12:53:10;;;;;;;4.40;1.90;;;;;;;;;;7422513;19;19914;-79
2024/02/12 12:55:55;;;;;;;3.53;2.22;;;;;;;;;;7422238;19;19944;-79
2024/02/12 12:58:41;;;;;;;4.75;2.10;;;;;;;;;;7420151;19;20357;-79
2024/02/12 13:01:33;;;;;;;6.20;1.90;;;;;;;;;;7420131;19;19907;-79
2024/02/12 13:04:20;;;;;;;2.55;1.75;;;;;;;;;;7419757;19;20009;-79
2024/02/12 13:07:06;;;;;;;4.25;2.42;;;;;;;;;;7423255;19;19938;-80
2024/02/12 13:09:53;;;;;;;3.72;2.03;;;;;;;;;;7422723;19;19923;-80
2024/02/12 13:12:43;;;;;;;5.28;1.60;;;;;;;;;;7423422;19;19936;-79
2024/02/12 13:15:30;;;;;;;2.47;1.52;;;;;;;;;;7423752;19;19907;-78
2024/02/12 13:18:26;;;;;;;4.68;1.90;;;;;;;;;;7420672;19;19926;-79
2024/02/12 13:21:11;;;;;;;4.65;1.83;;;;;;;;;;7419818;19;19937;-79
2024/02/12 13:23:57;;;;;;;5.60;1.95;;;;;;;;;;7424027;19;19922;-79
2024/02/12 13:26:42;;;;;;;3.25;2.17;;;;;;;;;;7422231;19;19925;-80
2024/02/12 13:29:33;;;;;;;4.00;1.80;;;;;;;;;;7425057;19;19929;-79
2024/02/12 13:32:21;;;;;;;3.97;1.80;;;;;;;;;;7422726;19;19968;-79
2024/02/12 13:35:10;;;;;;;4.38;1.80;;;;;;;;;;7426390;19;19932;-79
2024/02/12 13:37:58;;;;;;;5.57;1.92;;;;;;;;;;7420703;19;19919;-80
2024/02/12 13:40:45;;;;;;;15.82;5.10;;;;;;;;;;7428772;19;19923;-81
2024/02/12 13:43:29;;;;;;;3.08;1.90;;;;;;;;;;7416650;19;19913;-78
2024/02/12 13:46:16;;;;;;;3.15;1.80;;;;;;;;;;7407809;19;20335;-79
2024/02/12 13:49:08;;;;;;;3.58;1.60;;;;;;;;;;7405987;19;19915;-78
2024/02/12 13:51:55;;;;;;;3.85;1.50;;;;;;;;;;7406176;19;19919;-78
2024/02/12 13:54:45;;;;;;;2.97;1.48;;;;;;;;;;7405803;19;19918;-78
2024/02/12 13:57:34;;;;;;;2.58;1.40;;;;;;;;;;7407544;19;19922;-78
2024/02/12 14:00:22;;;;;;;3.20;1.35;;;;;;;;;;7408010;19;20308;-78
2024/02/12 14:03:08;;;;;;;3.65;1.27;;;;;;;;;;7408460;19;19911;-78
2024/02/12 14:05:54;;;;;;;2.78;1.70;;;;;;;;;;7402886;19;19918;-78
2024/02/12 14:08:44;;;;;;;2.47;1.10;;;;;;;;;;7406813;19;19923;-78
2024/02/12 14:11:30;;;;;;;2.70;1.52;;;;;;;;;;7407056;19;20455;-78
2024/02/12 14:14:18;;;;;;;4.00;1.60;;;;;;;;;;7406690;19;20348;-78
2024/02/12 14:17:06;;;;;;;3.90;1.50;;;;;;;;;;7406093;19;19922;-78
2024/02/12 14:19:55;;;;;;;5.38;1.67;;;;;;;;;;7405440;19;20253;-79
2024/02/12 14:22:39;;;;;;;2.55;1.63;;;;;;;;;;7404573;19;19970;-79
2024/02/12 14:25:32;;;;;;;1.92;1.48;;;;;;;;;;7408093;19;19914;-79
2024/02/12 14:28:16;;;;;;;4.88;1.95;;;;;;;;;;7407845;19;19911;-79
2024/02/12 14:31:03;;;;;;;3.88;1.42;;;;;;;;;;7408838;19;20388;-79
2024/02/12 14:33:48;;;;;;;4.25;1.80;;;;;;;;;;7418117;19;19922;-79
2024/02/12 14:36:36;;;;;;;8.32;2.95;;;;;;;;;;7418741;19;19922;-79
2024/02/12 14:39:22;;;;;;;5.80;2.20;;;;;;;;;;7407540;19;19922;-79
2024/02/12 14:42:12;;;;;;;2.50;1.48;;;;;;;;;;7407413;19;19986;-79
2024/02/12 14:44:56;;;;;;;1.95;1.30;;;;;;;;;;7408783;19;19923;-79
2024/02/12 14:47:41;;;;;;;3.00;1.50;;;;;;;;;;7407879;19;19926;-79
2024/02/12 14:50:29;;;;;;;4.95;1.70;;;;;;;;;;7408192;19;19922;-79
2024/02/12 14:53:17;;;;;;;2.97;1.50;;;;;;;;;;7409159;19;19915;-79
2024/02/12 14:56:03;;;;;;;2.85;1.55;;;;;;;;;;7407785;19;20272;-79
2024/02/12 14:58:53;;;;;;;1.88;1.55;;;;;;;;;;7405990;19;20325;-79
2024/02/12 15:01:41;;;;;;;3.90;1.73;;;;;;;;;;7407726;19;20285;-79
2024/02/12 15:04:25;;;;;;;5.40;1.77;;;;;;;;;;7406975;19;20380;-79
2024/02/12 15:07:13;;;;;;;6.13;1.50;;;;;;;;;;7405290;19;19925;-79
2024/02/12 15:09:59;;;;;;;2.60;1.42;;;;;;;;;;7406995;19;19918;-79
2024/02/12 15:12:45;;;;;;;2.33;1.42;;;;;;;;;;7405594;19;19911;-79
2024/02/12 15:15:35;;;;;;;3.35;1.40;;;;;;;;;;7407603;19;19911;-79
2024/02/12 15:18:24;;;;;;;1.85;1.40;;;;;;;;;;7406644;19;19915;-79
2024/02/12 15:21:08;;;;;;;5.40;1.73;;;;;;;;;;7414700;19;20252;-79
2024/02/12 15:23:53;;;;;;;2.67;1.60;;;;;;;;;;7406035;19;19990;-79
2024/02/12 15:26:40;;;;;;;3.58;1.70;;;;;;;;;;7403554;19;19944;-79
2024/02/12 15:29:24;;;;;;;3.35;1.65;;;;;;;;;;7404994;19;19910;-79
2024/02/12 15:32:11;;;;;;;5.20;1.80;;;;;;;;;;7404590;19;19982;-79
2024/02/12 15:35:02;;;;;;;3.33;1.48;;;;;;;;;;7404222;19;20371;-79
2024/02/12 15:37:51;;;;;;;2.45;1.20;;;;;;;;;;7403954;19;20327;-78
2024/02/12 15:40:37;;;;;;;2.90;1.50;;;;;;;;;;7404086;19;20272;-78
2024/02/12 16:06:43;;;;;;;2.28;1.60;;;;;;;;;;7417850;19;19926;-81
2024/02/12 16:09:34;;;;;;;3.83;1.65;;;;;;;;;;7418370;19;19910;-82
2024/02/12 16:12:20;;;;;;;4.07;1.95;;;;;;;;;;7414078;19;19907;-81
2024/02/12 16:15:06;;;;;;;3.30;2.10;;;;;;;;;;7413094;19;19931;-84
2024/02/12 16:17:51;;;;;;;4.22;1.65;;;;;;;;;;7412504;19;19918;-82
2024/02/12 16:20:38;;;;;;;3.42;1.60;;;;;;;;;;7415488;19;19925;-83
2024/02/12 16:23:26;;;;;;;4.10;1.70;;;;;;;;;;7415363;19;19919;-83
2024/02/12 16:26:11;;;;;;;4.22;1.60;;;;;;;;;;7413829;19;19947;-83
2024/02/12 16:28:59;;;;;;;4.25;1.80;;;;;;;;;;7416062;19;19911;-83
2024/02/12 16:31:46;;;;;;;3.97;1.90;;;;;;;;;;7418515;19;19974;-83
2024/02/12 16:34:34;;;;;;;3.70;2.00;;;;;;;;;;7418805;19;19911;-83
2024/02/12 16:37:21;;;;;;;4.80;2.20;;;;;;;;;;7420129;19;19947;-83
2024/02/12 16:40:13;;;;;;;6.40;2.67;;;;;;;;;;7424840;19;19921;-83
2024/02/12 16:43:04;;;;;;;3.67;2.08;;;;;;;;;;7428392;19;19918;-83
2024/02/12 16:45:49;;;;;;;5.88;1.80;;;;;;;;;;7428755;19;19982;-83
2024/02/12 16:48:38;;;;;;;3.00;1.35;;;;;;;;;;7430042;19;19917;-83
2024/02/12 16:51:22;;;;;;;3.95;2.28;;;;;;;;;;7430498;19;19926;-84
2024/02/12 16:54:09;;;;;;;5.78;1.70;;;;;;;;;;7431249;19;19919;-83
2024/02/12 16:56:59;;;;;;;7.60;2.40;;;;;;;;;;7425927;19;19933;-82
2024/02/12 16:59:47;;;;;;;4.82;1.95;;;;;;;;;;7426065;19;19946;-83
2024/02/12 17:02:34;;;;;;;3.08;1.85;;;;;;;;;;7429187;19;19911;-83
2024/02/12 17:05:19;;;;;;;3.75;2.10;;;;;;;;;;7426778;19;19926;-83
2024/02/12 17:08:05;;;;;;;6.32;2.13;;;;;;;;;;7420901;19;19917;-82
2024/02/12 17:10:50;;;;;;;3.55;2.22;;;;;;;;;;7423960;19;19926;-81
2024/02/12 17:13:38;;;;;;;5.15;2.53;;;;;;;;;;7423039;19;19929;-81
2024/02/12 17:16:26;;;;;;;6.25;3.20;;;;;;;;;;7424213;19;19959;-82
2024/02/12 17:19:17;;;;;;;6.03;3.53;;;;;;;;;;7423668;19;19962;-82
2024/02/12 17:22:03;;;;;;;7.78;3.80;;;;;;;;;;7426458;19;19982;-82
2024/02/12 17:24:53;;;;;;;7.57;3.53;;;;;;;;;;7423892;19;20386;-81
2024/02/12 17:27:38;;;;;;;6.30;3.03;;;;;;;;;;7423902;19;19915;-82
2024/02/12 17:30:28;;;;;;;7.65;3.10;;;;;;;;;;7423598;19;19922;-82
2024/02/12 17:33:35;;;;;;;7.20;3.83;;;;;;;;;;7424919;19;19918;-82
2024/02/12 17:36:20;;;;;;;4.80;3.00;;;;;;;;;;7421938;19;19962;-82
2024/02/12 17:39:10;;;;;;;7.35;2.80;;;;;;;;;;7423470;19;19922;-82
2024/02/12 17:41:57;;;;;;;6.07;3.50;;;;;;;;;;7426171;19;19910;-82
2024/02/12 17:44:43;;;;;;;7.47;2.92;;;;;;;;;;7426023;19;19918;-81
2024/02/12 17:47:30;;;;;;;5.95;2.95;;;;;;;;;;7424424;19;19921;-79
2024/02/12 17:50:14;;;;;;;3.85;2.60;;;;;;;;;;7415937;19;19972;-82
2024/02/12 17:53:02;;;;;;;4.32;2.67;;;;;;;;;;7414811;19;19918;-81
2024/02/12 17:55:46;;;;;;;4.03;2.60;;;;;;;;;;7414693;19;19919;-81
2024/02/12 17:58:35;;;;;;;5.57;2.38;;;;;;;;;;7415293;19;19911;-81
2024/02/12 18:01:23;;;;;;;3.67;1.92;;;;;;;;;;7414354;19;19974;-80
2024/02/12 18:04:12;;;;;;;6.85;1.88;;;;;;;;;;7417759;19;19967;-80